Time;durP1;ratioP1;P1;durP2;ratioP2;P2;SDS_P1;SDS_P2;PMS_P1;PMS_P2;Temp;Humidity;BMP_temperature;BMP_pressure;BME280_temperature;BME280_humidity;BME280_pressure;Samples;Min_cycle;Max_cycle;Signal;HPM_P1;HPM_P2
2023/06/10 00:00:42;;;;;;;6.25;4.50;;;;;;;21.01;45.94;99423.34;1087209;47;20075;-83
2023/06/10 00:01:46;;;;;;;6.05;4.22;;;;;;;21.04;45.89;99417.41;1087318;54;20030;-83
2023/06/10 00:02:50;;;;;;;6.53;4.50;;;;;;;21.04;45.56;99414.72;1087311;47;20030;-82
2023/06/10 00:03:51;;;;;;;8.40;4.88;;;;;;;20.97;45.71;99417.50;1087295;54;20026;-83
2023/06/10 00:04:56;;;;;;;7.35;4.50;;;;;;;21.01;45.68;99415.19;1087423;47;20072;-85
2023/06/10 00:06:03;;;;;;;5.88;4.47;;;;;;;20.94;45.75;99412.53;1087355;54;20035;-84
2023/06/10 00:07:08;;;;;;;7.07;4.63;;;;;;;20.96;46.05;99415.03;1087592;54;20057;-81
2023/06/10 00:08:11;;;;;;;5.85;4.28;;;;;;;20.93;45.94;99410.88;1087617;54;20030;-82
2023/06/10 00:09:14;;;;;;;7.40;4.60;;;;;;;20.91;46.13;99412.19;1087556;54;20043;-84
2023/06/10 00:10:17;;;;;;;8.15;4.82;;;;;;;20.91;45.95;99421.16;1087284;47;20030;-81
2023/06/10 00:11:18;;;;;;;6.28;4.25;;;;;;;20.94;45.92;99417.13;1087302;54;20034;-82
2023/06/10 00:12:22;;;;;;;6.03;4.28;;;;;;;20.96;45.89;99421.31;1087343;47;20022;-81
2023/06/10 00:13:24;;;;;;;6.13;4.45;;;;;;;20.93;45.86;99416.31;1087450;54;20038;-83
2023/06/10 00:14:27;;;;;;;5.70;4.20;;;;;;;20.98;45.93;99413.72;1087458;54;20038;-82
2023/06/10 00:15:28;;;;;;;6.68;4.13;;;;;;;20.91;46.06;99417.63;1087502;54;20054;-82
2023/06/10 00:16:32;;;;;;;7.28;4.68;;;;;;;20.84;45.98;99412.25;1087317;47;20041;-82
2023/06/10 00:17:33;;;;;;;6.32;4.47;;;;;;;20.92;45.91;99414.66;1087274;54;20065;-81
2023/06/10 00:18:38;;;;;;;7.15;5.10;;;;;;;20.93;45.85;99415.47;1087578;54;20034;-80
2023/06/10 00:19:41;;;;;;;6.68;4.35;;;;;;;20.91;46.01;99417.63;1087797;54;20023;-81
2023/06/10 00:20:45;;;;;;;6.13;4.10;;;;;;;20.87;46.02;99412.63;1087737;54;20065;-83
2023/06/10 00:21:50;;;;;;;6.00;4.43;;;;;;;20.89;46.07;99412.38;1087481;47;20033;-84
2023/06/10 00:22:54;;;;;;;6.38;4.28;;;;;;;20.84;45.83;99417.69;1087923;47;20014;-80
2023/06/10 00:23:56;;;;;;;8.70;4.72;;;;;;;20.87;46.04;99411.81;1088135;47;20007;-82
2023/06/10 00:25:00;;;;;;;6.65;4.40;;;;;;;20.84;46.12;99414.97;1087541;54;20098;-80
2023/06/10 00:26:01;;;;;;;6.70;4.38;;;;;;;20.81;46.04;99418.97;1087528;54;20038;-80
2023/06/10 00:27:06;;;;;;;6.15;4.30;;;;;;;20.83;45.97;99416.03;1087448;47;20049;-84
2023/06/10 00:28:07;;;;;;;5.70;4.18;;;;;;;20.82;45.87;99425.22;1087285;47;20031;-82
2023/06/10 00:29:11;;;;;;;6.20;4.07;;;;;;;20.84;45.93;99420.41;1087298;54;20070;-82
2023/06/10 00:30:13;;;;;;;6.45;4.40;;;;;;;20.78;45.86;99418.59;1087342;47;20058;-81
2023/06/10 00:31:17;;;;;;;6.43;4.00;;;;;;;20.76;45.79;99421.53;1087279;47;20031;-84
2023/06/10 00:32:18;;;;;;;6.45;4.50;;;;;;;20.75;45.88;99421.78;1087322;54;20030;-82
2023/06/10 00:33:21;;;;;;;5.93;4.28;;;;;;;20.78;45.92;99419.41;1087119;47;20118;-81
2023/06/10 00:34:22;;;;;;;6.70;4.45;;;;;;;20.78;45.89;99421.31;1087202;54;20055;-81
2023/06/10 00:35:26;;;;;;;5.70;4.43;;;;;;;20.81;45.88;99418.13;1087116;47;20034;-83
2023/06/10 00:36:27;;;;;;;7.20;4.55;;;;;;;20.84;45.69;99418.50;1087233;47;20026;-83
2023/06/10 00:37:35;;;;;;;5.40;4.05;;;;;;;20.77;45.91;99422.38;1087297;54;20050;-82
2023/06/10 00:38:36;;;;;;;6.45;4.03;;;;;;;20.81;45.69;99424.41;1087127;47;20029;-82
2023/06/10 00:39:40;;;;;;;5.30;3.80;;;;;;;20.84;45.81;99423.13;1087252;54;20031;-83
2023/06/10 00:40:41;;;;;;;5.47;4.00;;;;;;;20.91;45.72;99415.72;1087207;54;20054;-83
2023/06/10 00:41:45;;;;;;;5.75;4.38;;;;;;;20.89;45.43;99431.41;1087461;54;20034;-82
2023/06/10 00:42:46;;;;;;;5.70;4.28;;;;;;;20.96;45.51;99418.59;1087213;47;20022;-80
2023/06/10 00:43:50;;;;;;;5.50;4.35;;;;;;;21.04;45.04;99429.13;1087065;47;20030;-82
2023/06/10 00:44:51;;;;;;;5.45;3.42;;;;;;;21.01;45.34;99423.34;1087170;54;20026;-80
2023/06/10 00:45:56;;;;;;;4.88;3.40;;;;;;;21.00;45.24;99427.94;1087143;47;20031;-81
2023/06/10 00:46:57;;;;;;;5.85;3.83;;;;;;;21.04;45.16;99429.13;1087743;39;20376;-81
2023/06/10 00:48:02;;;;;;;5.28;3.75;;;;;;;21.08;45.32;99434.09;1087165;54;20042;-82
2023/06/10 00:49:04;;;;;;;5.22;3.38;;;;;;;21.10;44.90;99427.41;1087087;54;20037;-82
2023/06/10 00:50:09;;;;;;;5.03;3.72;;;;;;;21.12;44.83;99419.81;1087249;47;20055;-81
2023/06/10 00:51:11;;;;;;;4.50;3.20;;;;;;;21.15;44.82;99430.25;1087122;46;20030;-82
2023/06/10 00:52:17;;;;;;;6.70;4.60;;;;;;;21.10;44.91;99421.97;1087191;46;20050;-80
2023/06/10 00:53:21;;;;;;;5.70;4.10;;;;;;;21.06;45.36;99428.09;1087350;54;20082;-83
2023/06/10 00:54:25;;;;;;;5.90;3.53;;;;;;;20.99;45.30;99428.16;1087201;47;20489;-80
2023/06/10 00:55:27;;;;;;;6.90;4.15;;;;;;;20.97;45.27;99417.50;1087147;47;20039;-80
2023/06/10 00:56:31;;;;;;;4.90;3.60;;;;;;;20.99;45.07;99422.72;1087297;54;20055;-79
2023/06/10 00:57:32;;;;;;;5.47;4.10;;;;;;;20.88;45.45;99425.16;1087187;47;20026;-83
2023/06/10 00:58:36;;;;;;;5.30;3.47;;;;;;;20.90;45.55;99432.25;1087234;54;20030;-80
2023/06/10 00:59:38;;;;;;;5.43;3.90;;;;;;;20.91;45.66;99428.47;1087147;47;20057;-79
2023/06/10 01:00:44;;;;;;;5.25;3.88;;;;;;;20.90;45.84;99426.81;1087175;54;20066;-81
2023/06/10 01:01:47;;;;;;;5.97;4.13;;;;;;;20.91;45.76;99423.84;1087204;54;20027;-83
2023/06/10 01:02:52;;;;;;;5.50;3.97;;;;;;;20.97;45.88;99427.56;1087145;47;20038;-82
2023/06/10 01:03:54;;;;;;;6.82;4.30;;;;;;;21.00;45.81;99430.63;1087253;54;20395;-82
2023/06/10 07:23:55;;;;;;;6.70;4.38;;;;;;;23.12;47.53;99563.84;1076651;54;21217;31
2023/06/10 07:25:00;;;;;;;5.93;4.35;;;;;;;23.43;46.67;99555.50;1074873;54;20077;31
2023/06/10 07:27:31;;;;;;;6.03;4.20;;;;;;;23.80;46.01;99549.66;1077148;54;20864;31
2023/06/10 07:30:47;;;;;;;5.35;3.85;;;;;;;23.94;46.04;99558.38;1087215;54;20026;-84
2023/06/10 07:33:01;;;;;;;5.80;4.20;;;;;;;23.71;46.09;99554.66;1087036;54;20034;-88
2023/06/10 07:34:02;;;;;;;5.22;3.78;;;;;;;23.59;46.22;99559.38;1086728;47;20023;-87
2023/06/10 07:37:36;;;;;;;6.18;4.10;;;;;;;23.85;46.06;99552.50;1083814;39;20379;-86
2023/06/10 07:39:51;;;;;;;5.25;3.70;;;;;;;24.26;45.24;99552.41;1075722;39;21370;31
2023/06/10 07:42:04;;;;;;;5.93;4.15;;;;;;;24.57;44.48;99550.16;1088455;54;20011;-85
2023/06/10 07:44:12;;;;;;;5.40;4.23;;;;;;;24.63;44.56;99546.44;1083652;54;20009;31
2023/06/10 07:45:19;;;;;;;5.80;3.95;;;;;;;24.76;44.44;99539.81;1077513;47;20442;-85
2023/06/10 07:46:24;;;;;;;6.28;4.07;;;;;;;24.63;44.38;99548.34;1086617;47;20037;-83
2023/06/10 07:48:34;;;;;;;5.22;3.92;;;;;;;24.38;44.95;99546.88;1087276;54;20021;-86
2023/06/10 07:50:49;;;;;;;5.57;4.28;;;;;;;24.78;44.11;99545.88;1086827;39;20948;-84
2023/06/10 07:51:51;;;;;;;5.60;4.00;;;;;;;24.81;44.20;99541.81;1086944;47;20026;-85
2023/06/10 07:55:10;;;;;;;5.60;4.10;;;;;;;24.87;43.64;99538.91;1087468;54;20793;-84
2023/06/10 07:56:11;;;;;;;6.40;4.47;;;;;;;24.76;44.04;99548.84;1087513;54;20026;-86
2023/06/10 07:58:21;;;;;;;6.95;4.30;;;;;;;25.12;43.48;99540.31;1075859;54;20153;31
2023/06/10 07:59:26;;;;;;;5.07;3.75;;;;;;;25.33;43.14;99544.13;1075978;46;20042;31
2023/06/10 08:02:43;;;;;;;5.53;3.83;;;;;;;25.87;42.17;99539.84;1075679;47;20038;31
2023/06/10 08:03:44;;;;;;;4.45;3.60;;;;;;;25.99;42.00;99539.66;1087641;47;19969;-88
2023/06/10 08:05:57;;;;;;;6.13;4.28;;;;;;;25.75;42.55;99544.63;1087619;54;20026;-83
2023/06/10 08:07:02;;;;;;;6.55;4.50;;;;;;;25.64;42.72;99550.00;1087443;47;20023;-84
2023/06/10 08:08:06;;;;;;;5.18;4.03;;;;;;;25.42;42.94;99546.44;1087057;54;20030;-84
2023/06/10 08:09:07;;;;;;;5.90;4.30;;;;;;;25.57;42.46;99546.63;1086993;47;20157;-83
2023/06/10 08:10:14;;;;;;;6.25;4.10;;;;;;;25.54;42.52;99547.13;1087015;47;20097;-84
2023/06/10 08:11:16;;;;;;;6.65;4.38;;;;;;;25.72;42.29;99550.59;1087138;47;20046;-84
2023/06/10 08:12:20;;;;;;;5.85;4.75;;;;;;;25.93;42.19;99547.00;1086929;47;21184;-83
2023/06/10 08:14:40;;;;;;;6.75;4.25;;;;;;;26.30;41.03;99540.78;1084273;54;20261;-87
2023/06/10 08:17:05;;;;;;;5.30;4.20;;;;;;;26.25;41.01;99531.69;1089376;31;20812;-83
2023/06/10 08:18:09;;;;;;;6.80;4.05;;;;;;;26.33;40.88;99533.13;1084897;54;20031;31
2023/06/10 08:20:30;;;;;;;6.85;4.78;;;;;;;26.27;40.72;99530.34;1084957;54;20026;31
2023/06/10 08:21:33;;;;;;;5.78;4.53;;;;;;;26.46;40.71;99527.19;1086842;47;21122;31
2023/06/10 08:22:43;;;;;;;5.30;3.88;;;;;;;26.56;40.36;99530.00;1086208;46;20046;-82
2023/06/10 08:23:44;;;;;;;5.97;4.78;;;;;;;26.51;40.60;99523.66;1087094;47;20026;-82
2023/06/10 08:24:48;;;;;;;5.88;4.10;;;;;;;26.14;40.96;99534.34;1087188;54;20031;-83
2023/06/10 08:26:57;;;;;;;6.55;4.85;;;;;;;26.12;41.20;99532.97;1087837;54;20138;-85
2023/06/10 08:27:58;;;;;;;5.38;4.60;;;;;;;26.25;40.87;99527.06;1087149;46;20027;-84
2023/06/10 08:30:10;;;;;;;5.97;4.80;;;;;;;26.69;40.17;99522.44;1081188;39;21309;-83
2023/06/10 08:31:11;;;;;;;5.10;3.92;;;;;;;26.87;40.06;99526.69;1086979;47;20027;-83
2023/06/10 08:32:15;;;;;;;7.05;4.70;;;;;;;27.08;39.43;99516.63;1086955;47;20997;-84
2023/06/10 08:34:28;;;;;;;5.93;4.53;;;;;;;26.91;39.61;99517.66;1087579;54;20074;-84
2023/06/10 08:35:29;;;;;;;7.45;4.80;;;;;;;26.73;39.99;99516.16;1087253;46;20022;-85
2023/06/10 08:36:33;;;;;;;5.75;4.40;;;;;;;27.01;39.86;99516.06;1087052;54;20044;-85
2023/06/10 08:37:34;;;;;;;5.40;4.32;;;;;;;27.19;39.31;99520.25;1086943;46;20027;-83
2023/06/10 08:39:42;;;;;;;7.50;4.45;;;;;;;26.97;39.63;99515.75;1087577;54;20010;-86
2023/06/10 08:40:43;;;;;;;5.97;4.10;;;;;;;26.84;39.97;99510.75;1087673;47;20082;-85
2023/06/10 08:43:00;;;;;;;6.18;4.82;;;;;;;27.02;39.41;99517.69;1087514;54;20019;-84
2023/06/10 08:44:08;;;;;;;8.45;4.72;;;;;;;27.02;39.31;99524.00;1086913;46;20105;-83
2023/06/10 08:46:17;;;;;;;6.10;4.70;;;;;;;26.94;39.84;99519.03;1087246;54;20031;-82
2023/06/10 08:47:19;;;;;;;7.22;4.85;;;;;;;26.89;39.79;99517.09;1086727;47;20026;-84
2023/06/10 08:48:24;;;;;;;6.03;4.57;;;;;;;26.91;39.53;99525.06;1087130;46;20053;-83
2023/06/10 08:49:29;;;;;;;6.03;4.53;;;;;;;26.72;39.75;99525.47;1087139;47;20014;-81
2023/06/10 08:50:34;;;;;;;6.25;4.55;;;;;;;26.82;39.55;99522.00;1086975;47;20028;-83
2023/06/10 08:51:36;;;;;;;5.53;4.32;;;;;;;26.80;39.79;99526.91;1086794;47;21236;-80
2023/06/10 08:52:43;;;;;;;6.32;5.10;;;;;;;26.96;39.72;99525.09;1086878;46;20105;-83
2023/06/10 08:53:53;;;;;;;6.75;4.82;;;;;;;27.18;39.24;99526.81;1086987;47;20022;-85
2023/06/10 08:55:01;;;;;;;6.20;4.57;;;;;;;27.52;38.45;99520.94;1087002;47;20026;-85
2023/06/10 08:56:05;;;;;;;6.80;4.75;;;;;;;27.47;38.52;99519.00;1087408;54;20112;-84
2023/06/10 08:58:20;;;;;;;6.88;4.40;;;;;;;28.02;37.74;99519.38;1087419;54;20082;-83
2023/06/10 08:59:22;;;;;;;5.85;4.55;;;;;;;27.97;37.79;99516.63;1088867;39;20425;-82
2023/06/10 09:00:27;;;;;;;11.05;5.07;;;;;;;27.79;37.93;99517.16;1089051;39;20930;-83
2023/06/10 09:01:29;;;;;;;6.82;4.35;;;;;;;27.58;38.38;99514.38;1086878;47;20026;-81
2023/06/10 09:02:36;;;;;;;5.80;4.63;;;;;;;27.87;38.11;99522.09;1094051;31;20983;-85
2023/06/10 09:03:38;;;;;;;6.13;4.47;;;;;;;27.75;38.03;99518.78;1087226;47;20034;-84
2023/06/10 09:04:45;;;;;;;6.85;4.63;;;;;;;27.74;38.02;99520.72;1086840;47;20038;-83
2023/06/10 09:06:53;;;;;;;5.10;4.15;;;;;;;28.01;37.69;99522.41;1087988;54;20049;-84
2023/06/10 09:09:02;;;;;;;4.85;3.92;;;;;;;28.53;36.64;99512.22;1088992;39;20786;-82
2023/06/10 09:10:06;;;;;;;5.88;4.32;;;;;;;28.32;36.69;99505.94;1086914;47;20026;-82
2023/06/10 09:11:10;;;;;;;5.65;4.30;;;;;;;28.25;37.04;99505.38;1086710;54;20026;-82
2023/06/10 09:12:13;;;;;;;6.25;4.45;;;;;;;28.12;37.17;99510.34;1093393;39;20877;-82
2023/06/10 09:13:20;;;;;;;6.35;4.60;;;;;;;27.96;37.52;99505.94;1086701;47;20031;-83
2023/06/10 09:14:21;;;;;;;5.90;4.60;;;;;;;28.29;37.07;99506.50;1087087;46;20057;-83
2023/06/10 09:15:25;;;;;;;7.85;5.45;;;;;;;28.37;37.02;99513.38;1086826;47;20026;-85
2023/06/10 09:16:26;;;;;;;10.13;4.70;;;;;;;28.31;37.21;99496.88;1087200;54;20034;-82
2023/06/10 09:17:30;;;;;;;8.30;5.68;;;;;;;28.09;37.54;99508.13;1086734;47;21074;-83
2023/06/10 09:18:31;;;;;;;6.43;4.97;;;;;;;28.09;37.57;99507.34;1090139;39;21007;-83
2023/06/10 09:19:35;;;;;;;6.00;4.75;;;;;;;28.11;37.59;99500.47;1087103;54;20050;-82
2023/06/10 09:20:39;;;;;;;6.35;4.95;;;;;;;28.12;37.76;99504.84;1087042;47;20842;-83
2023/06/10 09:21:40;;;;;;;6.43;4.70;;;;;;;28.11;37.22;99505.94;1086971;54;20033;-83
2023/06/10 09:22:45;;;;;;;6.32;5.03;;;;;;;27.96;37.51;99497.69;1086952;47;20058;-85
2023/06/10 09:23:46;;;;;;;10.27;4.63;;;;;;;28.26;36.95;99498.78;1086953;47;20114;-83
2023/06/10 09:24:50;;;;;;;6.00;4.15;;;;;;;28.65;36.45;99500.94;1086974;47;20026;-84
2023/06/10 09:25:57;;;;;;;5.25;4.38;;;;;;;28.95;35.82;99496.47;1086762;47;20023;-83
2023/06/10 09:27:11;;;;;;;6.85;4.57;;;;;;;28.52;36.07;99499.59;1087596;39;20874;-86
2023/06/10 09:28:18;;;;;;;6.18;4.85;;;;;;;28.41;36.25;99489.69;1086923;54;20805;-85
2023/06/10 09:29:21;;;;;;;8.48;5.20;;;;;;;28.23;36.95;99497.41;1087198;47;20030;-84
2023/06/10 09:31:28;;;;;;;7.07;5.07;;;;;;;28.31;36.86;99501.56;1086667;47;20107;-83
2023/06/10 09:32:30;;;;;;;6.00;4.90;;;;;;;28.48;36.85;99496.56;1086849;47;20117;-82
2023/06/10 09:33:34;;;;;;;7.13;4.90;;;;;;;28.75;36.50;99495.44;1086765;47;20026;-84
2023/06/10 09:34:36;;;;;;;6.00;4.68;;;;;;;29.06;35.74;99495.34;1086696;47;20033;-82
2023/06/10 09:35:48;;;;;;;5.57;4.47;;;;;;;29.32;35.37;99495.25;1086642;46;20031;-83
2023/06/10 09:36:49;;;;;;;5.85;4.65;;;;;;;29.50;35.00;99491.03;1086704;47;20034;-84
2023/06/10 09:37:54;;;;;;;5.97;4.47;;;;;;;29.67;34.93;99489.81;1086649;54;20055;-84
2023/06/10 09:38:59;;;;;;;5.80;4.85;;;;;;;29.59;34.46;99482.97;1086807;46;20027;-82
2023/06/10 09:40:05;;;;;;;6.28;5.05;;;;;;;29.10;34.83;99473.59;1087111;47;20094;-83
2023/06/10 09:41:08;;;;;;;6.32;4.45;;;;;;;28.68;35.47;99489.38;1087341;47;20099;-83
2023/06/10 09:42:20;;;;;;;6.63;4.57;;;;;;;28.56;35.10;99486.94;1087266;54;20035;-84
2023/06/10 09:43:40;;;;;;;7.40;5.70;;;;;;;28.84;35.09;99487.44;1086749;47;20023;-82
2023/06/10 09:45:47;;;;;;;6.45;5.07;;;;;;;29.57;33.98;99483.28;1087224;54;20030;-83
2023/06/10 09:46:50;;;;;;;5.82;4.55;;;;;;;29.48;34.07;99487.72;1088567;39;20675;-83
2023/06/10 09:47:57;;;;;;;5.55;4.20;;;;;;;29.73;33.92;99491.41;1087515;39;21055;-83
2023/06/10 09:48:59;;;;;;;7.80;4.25;;;;;;;29.84;33.85;99489.44;1089272;39;21086;-84
2023/06/10 09:50:03;;;;;;;6.53;4.28;;;;;;;29.69;34.04;99482.91;1088773;39;20827;-83
2023/06/10 09:51:09;;;;;;;6.28;5.00;;;;;;;29.76;33.83;99487.28;1086942;54;20053;-82
2023/06/10 09:52:13;;;;;;;5.10;4.10;;;;;;;29.91;33.65;99478.91;1087290;54;20053;-85
2023/06/10 09:55:32;;;;;;;6.07;4.45;;;;;;;29.09;34.03;99483.78;1087645;54;20034;-81
2023/06/10 09:58:05;;;;;;;6.90;4.63;;;;;;;29.41;33.74;99477.03;1085908;54;20105;-86
2023/06/10 10:00:28;;;;;;;5.28;4.00;;;;;;;29.55;33.59;99474.47;1087290;54;20031;-85
2023/06/10 10:02:48;;;;;;;6.15;4.38;;;;;;;29.87;32.91;99475.06;1087185;54;20078;-82
2023/06/10 10:03:51;;;;;;;5.30;4.15;;;;;;;29.97;33.07;99475.00;1086819;47;20027;-81
2023/06/10 10:04:55;;;;;;;5.22;4.30;;;;;;;29.83;33.33;99474.81;1086850;47;20039;-83
2023/06/10 10:05:59;;;;;;;5.97;4.10;;;;;;;30.08;32.74;99469.41;1088600;46;21484;-83
2023/06/10 10:07:03;;;;;;;5.20;3.85;;;;;;;30.05;32.55;99462.56;1087183;39;20857;-84
2023/06/10 10:08:04;;;;;;;5.43;3.85;;;;;;;30.18;32.76;99455.56;1087180;54;20057;-84
2023/06/10 10:09:09;;;;;;;5.82;4.20;;;;;;;30.20;32.48;99464.34;1088405;39;21206;-83
2023/06/10 10:10:11;;;;;;;6.07;3.92;;;;;;;29.98;32.61;99457.38;1087335;54;20848;-84
2023/06/10 10:11:16;;;;;;;5.82;4.03;;;;;;;30.20;32.43;99469.88;1086674;47;20037;-84
2023/06/10 10:12:18;;;;;;;5.00;3.88;;;;;;;30.48;31.97;99464.63;1087056;54;20082;-85
2023/06/10 10:13:22;;;;;;;5.60;4.18;;;;;;;30.52;31.59;99460.19;1087137;46;20026;-85
2023/06/10 10:14:25;;;;;;;4.97;3.60;;;;;;;29.83;31.49;99455.53;1087118;47;20050;-84
2023/06/10 10:15:36;;;;;;;5.57;3.90;;;;;;;29.73;31.51;99456.47;1087262;54;20054;-85
2023/06/10 10:16:41;;;;;;;5.43;3.80;;;;;;;30.13;31.11;99466.63;1086613;46;20036;-83
2023/06/10 10:18:51;;;;;;;5.10;3.60;;;;;;;30.10;31.20;99462.50;1087406;54;20065;-83
2023/06/10 10:23:39;;;;;;;7.13;4.13;;;;;;;29.97;31.70;99452.16;1087848;54;20022;-84
2023/06/10 10:24:46;;;;;;;5.25;3.85;;;;;;;30.17;31.58;99451.16;1087071;39;20331;-83
2023/06/10 10:25:55;;;;;;;5.20;3.95;;;;;;;30.16;31.61;99449.50;1086936;46;21281;-83
2023/06/10 10:28:11;;;;;;;5.40;4.10;;;;;;;29.48;32.20;99453.84;1087325;54;20007;-83
2023/06/10 10:29:19;;;;;;;5.68;4.28;;;;;;;29.59;32.43;99458.19;1086813;51;20023;-83
2023/06/10 10:30:27;;;;;;;6.47;4.20;;;;;;;29.32;32.74;99451.22;1088179;39;20927;-84
2023/06/10 10:31:35;;;;;;;8.13;4.78;;;;;;;28.98;33.34;99446.41;1087440;54;20018;-82
2023/06/10 10:33:48;;;;;;;6.55;3.75;;;;;;;28.53;33.76;99457.25;1087953;54;20014;-83
2023/06/10 10:35:05;;;;;;;5.90;4.07;;;;;;;28.63;33.58;99456.41;1086863;47;20086;-82
2023/06/10 10:36:10;;;;;;;6.35;4.30;;;;;;;28.88;33.32;99450.03;1087096;47;20030;-83
2023/06/10 10:38:17;;;;;;;6.20;4.25;;;;;;;29.44;32.29;99444.53;1087155;54;20007;-83
2023/06/10 10:39:19;;;;;;;5.53;3.83;;;;;;;29.66;32.37;99435.84;1086731;47;20049;-86
2023/06/10 10:40:26;;;;;;;4.97;3.95;;;;;;;29.72;32.17;99443.78;1087117;47;20995;-86
2023/06/10 10:42:32;;;;;;;5.70;3.90;;;;;;;29.55;31.65;99451.63;1087478;47;20057;-84
2023/06/10 10:43:34;;;;;;;4.75;3.72;;;;;;;29.91;30.95;99442.25;1087345;54;20053;-83
2023/06/10 10:44:38;;;;;;;6.22;3.63;;;;;;;30.08;30.96;99439.94;1086956;46;20030;-84
2023/06/10 10:45:42;;;;;;;4.88;3.53;;;;;;;30.49;30.53;99438.72;1086758;46;20033;-85
2023/06/10 10:47:57;;;;;;;4.93;3.70;;;;;;;30.77;30.03;99434.25;1087517;54;20034;-86
2023/06/10 10:49:02;;;;;;;5.60;4.18;;;;;;;30.45;30.21;99437.63;1087328;46;20017;-82
2023/06/10 10:51:09;;;;;;;5.20;3.90;;;;;;;30.76;30.11;99431.81;1087403;54;20010;-84
2023/06/10 10:52:12;;;;;;;6.25;3.78;;;;;;;30.95;29.56;99440.09;1087519;54;20042;-85
2023/06/10 10:53:22;;;;;;;4.72;3.47;;;;;;;30.72;29.56;99442.63;1087250;54;20038;-84
2023/06/10 10:55:36;;;;;;;4.45;3.70;;;;;;;30.73;29.86;99438.75;1087491;54;20030;-85
2023/06/10 10:57:46;;;;;;;5.13;3.40;;;;;;;30.41;29.76;99442.09;1087606;46;20086;-85
2023/06/10 10:59:03;;;;;;;5.25;3.80;;;;;;;30.35;29.94;99446.84;1087377;46;20038;-84
2023/06/10 11:01:16;;;;;;;5.10;3.72;;;;;;;30.95;29.22;99429.91;1085062;54;20015;-85
2023/06/10 11:03:44;;;;;;;5.15;3.80;;;;;;;30.65;29.66;99429.16;1087221;54;21238;-85
2023/06/10 11:06:17;;;;;;;6.60;4.38;;;;;;;30.59;30.13;99438.63;1087510;54;20027;-84
2023/06/10 11:08:53;;;;;;;5.15;4.20;;;;;;;31.30;28.54;99426.16;1087334;54;20069;-85
2023/06/10 11:10:59;;;;;;;5.32;4.00;;;;;;;31.17;28.98;99425.78;1087611;54;20082;-86
2023/06/10 11:12:00;;;;;;;5.32;3.85;;;;;;;31.24;29.01;99420.72;1087148;54;20066;-85
2023/06/10 11:13:12;;;;;;;5.13;4.28;;;;;;;31.52;28.47;99417.25;1086997;47;20053;-84
2023/06/10 11:15:21;;;;;;;6.00;3.50;;;;;;;32.07;28.27;99415.84;1088020;54;20010;-84
2023/06/10 11:16:26;;;;;;;5.00;4.07;;;;;;;31.62;28.26;99421.81;1087241;47;20019;-84
2023/06/10 11:17:29;;;;;;;5.95;4.50;;;;;;;31.38;29.10;99418.03;1087013;47;20038;-85
2023/06/10 11:19:40;;;;;;;5.13;3.85;;;;;;;31.39;28.89;99416.06;1087172;47;21123;-83
2023/06/10 11:21:50;;;;;;;6.95;4.40;;;;;;;30.59;29.50;99422.09;1086374;54;20033;31
2023/06/10 11:22:59;;;;;;;4.82;3.58;;;;;;;30.31;30.06;99432.00;1086913;47;20026;-83
2023/06/10 11:25:05;;;;;;;4.55;3.60;;;;;;;30.34;30.67;99415.69;1087518;54;20011;-84
2023/06/10 11:26:32;;;;;;;5.70;4.45;;;;;;;29.97;30.83;99416.34;1100384;39;20293;-83
2023/06/10 11:27:41;;;;;;;6.40;4.20;;;;;;;30.02;30.70;99417.13;1088474;39;20627;-85
2023/06/10 11:29:01;;;;;;;4.97;3.90;;;;;;;30.09;30.80;99419.53;1086952;47;20049;-84
2023/06/10 11:31:07;;;;;;;5.13;3.95;;;;;;;30.07;30.71;99420.94;1087787;54;20014;-87
2023/06/10 11:33:18;;;;;;;5.40;3.70;;;;;;;29.76;30.71;99416.50;1082502;54;20057;31
2023/06/10 11:34:27;;;;;;;7.13;4.07;;;;;;;29.55;30.70;99421.34;1088342;39;20996;-85
2023/06/10 11:35:31;;;;;;;6.03;3.88;;;;;;;29.79;30.92;99426.09;1087390;47;20057;-87
2023/06/10 11:37:37;;;;;;;5.55;3.92;;;;;;;29.77;30.71;99418.16;1087842;54;20011;-83
2023/06/10 11:38:40;;;;;;;4.63;3.60;;;;;;;29.48;31.16;99420.81;1087644;47;20022;-85
2023/06/10 11:40:59;;;;;;;7.00;4.40;;;;;;;29.34;31.02;99413.22;1085709;54;20031;-85
2023/06/10 11:42:00;;;;;;;5.45;4.13;;;;;;;29.59;30.99;99411.38;1087853;54;20045;-85
2023/06/10 11:43:06;;;;;;;5.00;3.58;;;;;;;29.78;30.82;99406.03;1087427;47;20015;-82
2023/06/10 11:46:29;;;;;;;5.95;4.00;;;;;;;29.37;31.55;99409.91;1087788;54;20026;-83
2023/06/10 11:50:15;;;;;;;5.15;3.55;;;;;;;28.58;31.94;99415.19;1087814;54;20038;-85
2023/06/10 11:51:19;;;;;;;5.30;4.10;;;;;;;28.52;32.16;99413.56;1087631;47;20167;-84
2023/06/10 11:55:59;;;;;;;6.47;3.67;;;;;;;28.79;31.61;99411.28;1087732;54;20051;-84
2023/06/10 11:57:03;;;;;;;5.32;3.47;;;;;;;28.93;31.39;99406.00;1087557;54;20037;-80
2023/06/10 11:58:04;;;;;;;4.80;3.63;;;;;;;29.13;31.32;99406.16;1087229;47;20026;-84
2023/06/10 12:01:37;;;;;;;5.60;3.50;;;;;;;29.23;31.08;99403.34;1087582;54;20801;-83
2023/06/10 12:03:47;;;;;;;4.65;3.22;;;;;;;28.70;31.43;99404.72;1087883;54;20011;-84
2023/06/10 12:04:51;;;;;;;7.40;3.35;;;;;;;28.70;31.33;99399.22;1088007;54;20018;-84
2023/06/10 12:05:57;;;;;;;5.82;3.70;;;;;;;28.65;31.20;99410.22;1088897;39;20998;-84
2023/06/10 12:07:03;;;;;;;4.65;3.00;;;;;;;28.47;31.49;99398.72;1087918;54;20014;-84
2023/06/10 12:10:19;;;;;;;5.50;3.85;;;;;;;28.54;31.95;99409.44;1087911;54;20094;-83
2023/06/10 12:11:21;;;;;;;7.03;3.78;;;;;;;28.57;31.82;99414.38;1087414;47;20030;-84
2023/06/10 12:12:25;;;;;;;4.93;3.70;;;;;;;28.62;31.68;99411.59;1087521;46;20075;-84
2023/06/10 12:14:56;;;;;;;4.70;3.60;;;;;;;28.93;31.06;99413.41;1087481;54;20026;-83
2023/06/10 12:16:06;;;;;;;4.80;3.80;;;;;;;29.03;30.98;99413.38;1089367;39;21110;-85
2023/06/10 12:17:10;;;;;;;5.13;3.55;;;;;;;28.85;31.44;99414.84;1087205;46;20078;-82
2023/06/10 12:18:17;;;;;;;4.97;3.58;;;;;;;29.06;30.95;99406.47;1087415;46;20046;-85
2023/06/10 12:19:21;;;;;;;4.47;3.47;;;;;;;29.21;30.70;99403.66;1087628;47;20010;-85
2023/06/10 12:21:28;;;;;;;7.18;3.75;;;;;;;28.93;31.07;99397.75;1087749;54;20018;-83
2023/06/10 12:22:39;;;;;;;5.88;3.88;;;;;;;28.75;31.15;99404.69;1086561;54;20038;-84
2023/06/10 12:23:42;;;;;;;6.18;3.70;;;;;;;28.59;30.95;99400.34;1087510;47;20027;-84
2023/06/10 12:24:45;;;;;;;6.57;3.70;;;;;;;28.48;31.32;99407.81;1087583;54;20034;-84
2023/06/10 12:25:56;;;;;;;5.28;3.58;;;;;;;28.35;31.03;99409.19;1087427;47;20027;-83
2023/06/10 12:30:22;;;;;;;4.07;2.77;;;;;;;28.60;30.47;99391.00;1087910;54;20027;-86
2023/06/10 12:31:23;;;;;;;4.60;3.35;;;;;;;28.75;30.79;99399.19;1087795;54;20352;-84
2023/06/10 12:32:38;;;;;;;7.45;3.85;;;;;;;28.39;31.09;99402.06;1087793;54;20030;-84
2023/06/10 12:34:45;;;;;;;4.95;3.58;;;;;;;28.76;30.70;99392.59;1087563;54;20033;-85
2023/06/10 12:35:52;;;;;;;4.80;3.58;;;;;;;28.98;30.52;99391.41;1086854;47;20098;-83
2023/06/10 12:36:54;;;;;;;5.05;3.60;;;;;;;28.97;30.67;99386.16;1086821;47;20027;-85
2023/06/10 12:38:04;;;;;;;7.15;4.22;;;;;;;28.94;30.93;99401.31;1087235;46;20030;-82
2023/06/10 12:39:05;;;;;;;6.07;3.85;;;;;;;28.64;30.98;99392.06;1087233;47;20022;-83
2023/06/10 12:40:11;;;;;;;5.00;3.55;;;;;;;28.36;31.67;99397.09;1087211;54;20067;-83
2023/06/10 12:41:12;;;;;;;5.43;3.72;;;;;;;28.39;31.94;99390.22;1087484;54;20049;-83
2023/06/10 12:42:15;;;;;;;7.45;3.30;;;;;;;28.31;32.18;99389.69;1087649;46;20064;-83
2023/06/10 12:43:20;;;;;;;4.95;3.58;;;;;;;28.31;32.10;99395.19;1087408;46;20038;-85
2023/06/10 12:44:31;;;;;;;6.57;3.65;;;;;;;28.25;32.23;99396.31;1087621;46;20030;-83
2023/06/10 12:45:39;;;;;;;6.45;3.75;;;;;;;28.38;32.28;99396.84;1087433;54;20035;-85
2023/06/10 12:46:40;;;;;;;5.20;3.50;;;;;;;28.36;32.24;99397.09;1087262;54;20038;-83
2023/06/10 12:47:44;;;;;;;5.32;3.90;;;;;;;28.65;32.12;99401.97;1087186;47;20037;-83
2023/06/10 12:49:51;;;;;;;5.63;3.72;;;;;;;28.93;31.54;99394.16;1087817;54;20053;-84
2023/06/10 12:50:56;;;;;;;5.15;3.67;;;;;;;28.87;31.77;99387.88;1087892;54;20035;-83
2023/06/10 12:51:57;;;;;;;4.70;3.30;;;;;;;29.08;31.46;99391.34;1087117;47;20968;-84
2023/06/10 12:53:03;;;;;;;4.95;3.70;;;;;;;29.29;31.21;99387.63;1087309;47;20061;-84
2023/06/10 12:54:04;;;;;;;5.80;3.72;;;;;;;29.41;31.07;99386.19;1087142;46;20460;-84
2023/06/10 12:56:11;;;;;;;4.75;3.58;;;;;;;29.64;30.53;99381.06;1087461;54;20031;-84
2023/06/10 12:57:12;;;;;;;6.55;3.70;;;;;;;29.41;30.81;99383.44;1087140;47;20026;-84